createdAt,value
2023-02-22T00:01:35.620Z,101145.41
2023-02-22T00:04:10.228Z,101146.09
2023-02-22T00:06:39.648Z,101148.75
2023-02-22T00:09:09.637Z,101140.41
2023-02-22T00:11:39.015Z,101141.38
2023-02-22T00:14:08.495Z,101140.41
2023-02-22T00:16:37.930Z,101134.38
2023-02-22T00:19:13.349Z,101130.81
2023-02-22T00:21:44.819Z,101130.81
2023-02-22T00:24:23.305Z,101130.59
2023-02-22T00:26:55.561Z,101136.81
2023-02-22T00:29:26.549Z,101128.66
2023-02-22T00:32:01.761Z,101138.00
2023-02-22T00:34:33.821Z,101131.69
2023-02-22T00:37:04.418Z,101142.16
2023-02-22T00:39:34.005Z,101134.34
2023-02-22T00:42:04.052Z,101124.41
2023-02-22T00:44:33.497Z,101128.66
2023-02-22T00:47:04.817Z,101132.19
2023-02-22T00:49:37.080Z,101133.56
2023-02-22T00:52:07.832Z,101132.19
2023-02-22T00:54:37.433Z,101124.69
2023-02-22T00:57:07.367Z,101130.59
2023-02-22T00:59:36.739Z,101130.03
2023-02-22T01:02:06.557Z,101133.50
2023-02-22T01:04:38.875Z,101136.13
2023-02-22T01:07:08.808Z,101138.13
2023-02-22T01:09:39.626Z,101127.28
2023-02-22T01:12:10.067Z,101124.72
2023-02-22T01:14:40.190Z,101123.94
2023-02-22T01:17:10.209Z,101119.38
2023-02-22T01:19:44.691Z,101117.63
2023-02-22T01:22:14.084Z,101121.97
2023-02-22T01:24:43.662Z,101125.31
2023-02-22T01:27:13.654Z,101130.25
2023-02-22T01:29:43.322Z,101132.59
2023-02-22T01:32:13.691Z,101129.47
2023-02-22T01:34:46.608Z,101131.63
2023-02-22T01:37:16.162Z,101134.38
2023-02-22T01:39:45.577Z,101135.00
2023-02-22T01:42:14.988Z,101126.22
2023-02-22T01:44:44.406Z,101125.22
2023-02-22T01:47:13.903Z,101124.75
2023-02-22T01:49:49.034Z,101125.22
2023-02-22T01:52:21.591Z,101122.75
2023-02-22T01:54:52.837Z,101123.94
2023-02-22T01:57:26.318Z,101132.03
2023-02-22T01:59:58.893Z,101133.56
2023-02-22T02:02:28.868Z,101131.22
2023-02-22T02:05:00.949Z,101130.16
2023-02-22T02:07:30.709Z,101132.44
2023-02-22T02:10:01.831Z,101133.81
2023-02-22T02:12:34.171Z,101123.34
2023-02-22T02:15:25.296Z,101109.81
2023-02-22T02:17:57.898Z,101113.66
2023-02-22T02:20:32.615Z,101102.75
2023-02-22T02:23:10.563Z,101100.59
2023-02-22T02:26:03.970Z,101104.03
2023-02-22T02:29:00.860Z,101107.59
2023-02-22T02:32:15.245Z,101106.50
2023-02-22T02:34:52.602Z,101104.78
2023-02-22T02:37:26.827Z,101098.28
2023-02-22T02:39:59.788Z,101097.72
2023-02-22T02:42:36.016Z,101096.94
2023-02-22T02:45:09.977Z,101093.84
2023-02-22T02:47:41.341Z,101091.00
2023-02-22T02:50:17.145Z,101090.38
2023-02-22T02:52:50.347Z,101081.69
2023-02-22T02:55:20.714Z,101085.66
2023-02-22T02:57:50.126Z,101077.19
2023-02-22T03:00:24.960Z,101087.19
2023-02-22T03:03:01.862Z,101078.38
2023-02-22T03:05:48.538Z,101074.00
2023-02-22T03:08:21.262Z,101073.25
2023-02-22T03:10:58.730Z,101079.00
2023-02-22T03:13:39.077Z,101089.31
2023-02-22T03:16:19.217Z,101086.28
2023-02-22T03:18:53.382Z,101089.81
2023-02-22T03:21:29.318Z,101096.22
2023-02-22T03:24:05.921Z,101083.81
2023-02-22T03:26:40.926Z,101084.53
2023-02-22T03:29:13.066Z,101082.53
2023-02-22T03:31:48.511Z,101068.59
2023-02-22T03:34:21.969Z,101065.72
2023-02-22T03:36:58.616Z,101071.03
2023-02-22T03:39:31.253Z,101068.13
2023-02-22T03:42:04.525Z,101062.75
2023-02-22T03:44:35.256Z,101064.25
2023-02-22T03:47:09.016Z,101064.66
2023-02-22T03:49:41.372Z,101069.13
2023-02-22T03:52:13.964Z,101075.22
2023-02-22T03:54:43.850Z,101071.25
2023-02-22T03:57:16.992Z,101076.94
2023-02-22T03:59:46.658Z,101081.13
2023-02-22T04:02:19.071Z,101073.34
2023-02-22T04:04:48.720Z,101084.50
2023-02-22T04:07:21.408Z,101076.00
2023-02-22T04:09:51.076Z,101083.09
2023-02-22T04:12:20.671Z,101085.31
2023-02-22T04:14:50.065Z,101083.72
2023-02-22T04:17:19.507Z,101086.72
2023-02-22T04:19:48.935Z,101086.25
2023-02-22T04:22:22.092Z,101090.19
2023-02-22T04:24:51.687Z,101080.22
2023-02-22T04:27:21.237Z,101090.09
2023-02-22T04:29:50.666Z,101087.63
2023-02-22T04:32:22.870Z,101093.06
2023-02-22T04:34:52.727Z,101090.88
2023-02-22T04:37:24.730Z,101085.81
2023-02-22T04:39:54.168Z,101085.84
2023-02-22T04:42:23.579Z,101082.88
2023-02-22T04:44:52.958Z,101083.50
2023-02-22T04:47:22.416Z,101090.34
2023-02-22T04:49:51.850Z,101084.88
2023-02-22T04:52:23.960Z,101080.94
2023-02-22T04:54:53.658Z,101079.78
2023-02-22T04:57:23.140Z,101084.56
2023-02-22T04:59:52.823Z,101082.47
2023-02-22T05:02:22.738Z,101077.59
2023-02-22T05:04:52.213Z,101081.53
2023-02-22T05:07:24.322Z,101071.59
2023-02-22T05:09:53.693Z,101074.22
2023-02-22T05:12:23.067Z,101070.03
2023-02-22T05:14:52.997Z,101069.66
2023-02-22T05:17:22.358Z,101063.75
2023-02-22T05:19:51.773Z,101059.28
2023-02-22T05:22:24.513Z,101064.84
2023-02-22T05:24:54.478Z,101062.00
2023-02-22T05:27:24.710Z,101057.25
2023-02-22T05:29:54.125Z,101063.88
2023-02-22T05:32:23.508Z,101067.63
2023-02-22T05:34:52.955Z,101067.25
2023-02-22T05:37:25.171Z,101063.19
2023-02-22T05:39:55.962Z,101065.34
2023-02-22T05:42:25.319Z,101061.81
2023-02-22T05:44:54.735Z,101066.06
2023-02-22T05:47:24.144Z,101060.03
2023-02-22T05:49:53.558Z,101054.81
2023-02-22T05:52:25.582Z,101060.06
2023-02-22T05:54:54.993Z,101052.56
2023-02-22T05:57:24.410Z,101043.78
2023-02-22T05:59:53.973Z,101035.38
2023-02-22T06:02:23.336Z,101036.69
2023-02-22T06:04:53.032Z,101035.97
2023-02-22T06:07:25.401Z,101042.88
2023-02-22T06:09:54.789Z,101030.84
2023-02-22T06:12:24.199Z,101037.25
2023-02-22T06:14:53.600Z,101027.56
2023-02-22T06:17:22.993Z,101026.06
2023-02-22T06:19:52.370Z,101037.13
2023-02-22T06:22:25.159Z,101030.75
2023-02-22T06:24:55.741Z,101035.41
2023-02-22T06:27:27.435Z,101040.53
2023-02-22T06:29:56.850Z,101037.66
2023-02-22T06:32:26.256Z,101039.75
2023-02-22T06:34:55.687Z,101044.69
2023-02-22T06:37:27.715Z,101040.75
2023-02-22T06:39:59.179Z,101037.19
2023-02-22T06:42:30.111Z,101031.97
2023-02-22T06:44:59.598Z,101027.75
2023-02-22T06:47:28.975Z,101034.81
2023-02-22T06:50:01.936Z,101027.75
2023-02-22T06:52:33.884Z,101027.91
2023-02-22T06:55:03.412Z,101023.56
2023-02-22T06:57:32.778Z,101030.06
2023-02-22T07:00:02.199Z,101024.47
2023-02-22T07:02:31.559Z,101022.00
2023-02-22T07:05:01.027Z,101028.41
2023-02-22T07:07:30.387Z,101021.59
2023-02-22T07:10:02.400Z,101022.34
2023-02-22T07:12:31.908Z,101022.19
2023-02-22T07:15:01.300Z,101013.69
2023-02-22T07:17:30.710Z,101018.34
2023-02-22T07:20:00.145Z,101020.69
2023-02-22T07:22:30.725Z,101020.59
2023-02-22T07:25:03.006Z,101023.34
2023-02-22T07:27:32.668Z,101017.22
2023-02-22T07:30:02.032Z,101015.84
2023-02-22T07:32:31.521Z,101022.97
2023-02-22T07:35:02.862Z,101028.09
2023-02-22T07:37:32.524Z,101031.53
2023-02-22T07:40:04.557Z,101030.47
2023-02-22T07:42:33.968Z,101032.22
2023-02-22T07:45:03.367Z,101027.69
2023-02-22T07:47:32.773Z,101023.53
2023-02-22T07:50:02.212Z,101025.69
2023-02-22T07:52:31.825Z,101027.97
2023-02-22T07:55:04.030Z,101023.22
2023-02-22T07:57:33.412Z,101024.13
2023-02-22T08:00:02.821Z,101026.16
2023-02-22T08:02:32.278Z,101018.31
2023-02-22T08:05:01.898Z,101024.03
2023-02-22T08:07:31.258Z,101021.56
2023-02-22T08:10:07.622Z,101020.66
2023-02-22T08:12:37.523Z,101020.44
2023-02-22T08:15:07.789Z,101029.81
2023-02-22T08:17:39.689Z,101023.50
2023-02-22T08:20:10.193Z,101025.47
2023-02-22T08:22:40.211Z,101021.84
2023-02-22T08:25:12.536Z,101022.63
2023-02-22T08:27:42.127Z,101021.13
2023-02-22T08:30:15.917Z,101025.56
2023-02-22T08:32:45.350Z,101026.38
2023-02-22T08:35:15.072Z,101022.38
2023-02-22T08:37:45.997Z,101017.59
2023-02-22T08:40:21.283Z,101021.25
2023-02-22T08:42:50.770Z,101027.28
2023-02-22T08:45:20.704Z,101029.13
2023-02-22T08:47:50.093Z,101022.13
2023-02-22T08:50:24.036Z,101036.66
2023-02-22T08:52:53.846Z,101034.66
2023-02-22T08:55:27.472Z,101040.22
2023-02-22T08:57:56.919Z,101048.69
2023-02-22T09:00:26.792Z,101037.31
2023-02-22T09:02:56.190Z,101045.06
2023-02-22T09:05:25.638Z,101052.16
2023-02-22T09:07:55.131Z,101054.75
2023-02-22T09:10:30.411Z,101052.88
2023-02-22T09:13:01.201Z,101049.44
2023-02-22T09:15:31.235Z,101055.38
2023-02-22T09:18:01.301Z,101066.44
2023-02-22T09:20:31.154Z,101060.34
2023-02-22T09:23:02.963Z,101069.00
2023-02-22T09:25:36.269Z,101064.06
2023-02-22T09:28:05.706Z,101074.94
2023-02-22T09:30:36.551Z,101073.00
2023-02-22T09:33:10.203Z,101076.28
2023-02-22T09:35:42.461Z,101075.50
2023-02-22T09:38:13.138Z,101083.13
2023-02-22T09:40:48.208Z,101076.19
2023-02-22T09:43:38.212Z,101085.84
2023-02-22T09:46:19.524Z,101089.91
2023-02-22T09:48:58.091Z,101090.47
2023-02-22T09:51:31.222Z,101087.16
2023-02-22T09:54:03.039Z,101097.19
2023-02-22T09:56:36.654Z,101099.69
2023-02-22T09:59:08.963Z,101100.00
2023-02-22T10:01:43.490Z,101096.13
2023-02-22T10:04:19.290Z,101098.25
2023-02-22T10:07:06.070Z,101108.91
2023-02-22T10:09:38.195Z,101110.25
2023-02-22T10:12:14.086Z,101112.28
2023-02-22T10:15:11.892Z,101111.81
2023-02-22T10:17:48.172Z,101114.13
2023-02-22T10:20:25.312Z,101118.13
2023-02-22T10:23:06.753Z,101125.91
2023-02-22T10:25:40.345Z,101125.72
2023-02-22T10:28:18.634Z,101114.56
2023-02-22T10:30:54.965Z,101125.91
2023-02-22T10:33:26.596Z,101120.53
2023-02-22T10:35:57.088Z,101116.34
2023-02-22T10:38:28.538Z,101118.13
2023-02-22T10:41:00.449Z,101115.44
2023-02-22T10:43:33.691Z,101108.81
2023-02-22T10:46:05.591Z,101109.09
2023-02-22T10:48:39.026Z,101104.91
2023-02-22T10:51:10.468Z,101089.50
2023-02-22T10:53:41.112Z,101084.09
2023-02-22T10:56:18.362Z,101073.81
2023-02-22T10:58:53.470Z,101068.22
2023-02-22T11:01:38.285Z,101061.59
2023-02-22T11:04:14.790Z,101055.75
2023-02-22T11:06:46.008Z,101049.19
2023-02-22T11:09:17.952Z,101031.59
2023-02-22T11:11:49.121Z,101036.75
2023-02-22T11:14:28.734Z,101036.31
2023-02-22T11:16:59.692Z,101023.94
2023-02-22T11:19:30.667Z,101021.47
2023-02-22T11:22:02.458Z,101021.28
2023-02-22T11:24:43.665Z,101015.78
2023-02-22T11:27:27.182Z,101011.75
2023-02-22T11:29:59.852Z,101007.66
2023-02-22T11:32:29.249Z,101013.13
2023-02-22T11:35:35.433Z,101011.69
2023-02-22T11:38:21.085Z,101013.69
2023-02-22T11:41:10.918Z,101020.28
2023-02-22T11:43:40.522Z,101013.63
2023-02-22T11:46:14.583Z,101019.50
2023-02-22T11:48:48.549Z,101018.41
2023-02-22T11:51:30.326Z,101023.88
2023-02-22T11:54:31.206Z,101032.34
2023-02-22T11:57:12.527Z,101030.50
2023-02-22T11:59:49.533Z,101036.91
2023-02-22T12:02:32.524Z,101045.66
2023-02-22T12:05:17.963Z,101040.16
2023-02-22T12:07:56.479Z,101043.56
2023-02-22T12:10:32.313Z,101048.81
2023-02-22T12:13:17.911Z,101050.41
2023-02-22T12:15:51.012Z,101056.84
2023-02-22T12:18:24.805Z,101060.44
2023-02-22T12:20:56.814Z,101059.50
2023-02-22T12:23:32.858Z,101068.25
2023-02-22T12:26:05.336Z,101068.06
2023-02-22T12:28:38.572Z,101075.53
2023-02-22T12:31:17.098Z,101074.47
2023-02-22T12:33:54.239Z,101072.81
2023-02-22T12:36:28.228Z,101059.69
2023-02-22T12:39:07.484Z,101075.72
2023-02-22T12:41:40.458Z,101062.03
2023-02-22T12:44:12.515Z,101069.09
2023-02-22T12:46:43.564Z,101078.56
2023-02-22T12:49:20.902Z,101075.56
2023-02-22T12:51:55.814Z,101082.97
2023-02-22T12:54:34.436Z,101081.13
2023-02-22T12:57:09.860Z,101083.59
2023-02-22T12:59:44.183Z,101074.88
2023-02-22T13:02:20.086Z,101057.19
2023-02-22T13:04:49.813Z,101063.66
2023-02-22T13:07:30.682Z,101064.22
2023-02-22T13:10:14.392Z,101059.31
2023-02-22T13:12:48.479Z,101065.13
2023-02-22T13:15:23.131Z,101054.47
2023-02-22T13:18:01.665Z,101064.56
2023-02-22T13:20:34.287Z,101055.34
2023-02-22T13:23:06.605Z,101048.50
2023-02-22T13:25:44.217Z,101045.06
2023-02-22T13:28:24.005Z,101039.28
2023-02-22T13:31:04.789Z,101017.63
2023-02-22T13:33:44.825Z,101015.63
2023-02-22T13:36:22.988Z,101008.97
2023-02-22T13:39:10.488Z,101005.81
2023-02-22T13:41:55.125Z,101006.91
2023-02-22T13:44:47.249Z,101008.09
2023-02-22T13:47:55.631Z,101002.81
2023-02-22T13:50:45.630Z,100994.38
2023-02-22T13:53:18.282Z,100988.84
2023-02-22T13:55:51.436Z,101006.03
2023-02-22T13:58:23.729Z,100996.66
2023-02-22T14:00:55.811Z,100988.00
2023-02-22T14:03:41.089Z,100984.69
2023-02-22T14:06:12.854Z,100987.09
2023-02-22T14:08:49.068Z,100988.34
2023-02-22T14:11:47.786Z,100978.84
2023-02-22T14:14:20.976Z,100983.78
2023-02-22T14:17:24.476Z,100982.91
2023-02-22T14:20:14.800Z,100982.19
2023-02-22T14:22:47.688Z,100964.94
2023-02-22T14:25:39.864Z,100965.56
2023-02-22T14:28:11.340Z,100956.47
2023-02-22T14:30:43.375Z,100941.41
2023-02-22T14:33:44.219Z,100930.09
2023-02-22T14:36:14.214Z,100915.16
2023-02-22T14:38:46.122Z,100904.63
2023-02-22T14:41:17.922Z,100896.63
2023-02-22T14:43:48.193Z,100898.53
2023-02-22T14:46:26.735Z,100886.31
2023-02-22T14:49:01.209Z,100882.09
2023-02-22T14:51:33.992Z,100872.75
2023-02-22T14:54:06.749Z,100873.34
2023-02-22T14:56:44.172Z,100876.25
2023-02-22T14:59:21.969Z,100875.41
2023-02-22T15:02:11.642Z,100862.88
2023-02-22T15:04:44.027Z,100862.63
2023-02-22T15:07:27.379Z,100851.53
2023-02-22T15:10:17.727Z,100850.72
2023-02-22T15:12:54.668Z,100837.66
2023-02-22T15:15:27.541Z,100833.94
2023-02-22T15:18:00.966Z,100825.47
2023-02-22T15:20:32.205Z,100827.09
2023-02-22T15:23:02.377Z,100825.25
2023-02-22T15:25:33.437Z,100819.63
2023-02-22T15:28:09.500Z,100830.47
2023-02-22T15:30:39.175Z,100820.91
2023-02-22T15:33:24.285Z,100817.91
2023-02-22T15:35:58.273Z,100811.94
2023-02-22T15:38:31.758Z,100810.22
2023-02-22T15:41:05.757Z,100803.31
2023-02-22T15:43:35.221Z,100796.41
2023-02-22T15:46:06.849Z,100791.25
2023-02-22T15:48:41.299Z,100789.78
2023-02-22T15:51:13.839Z,100783.63
2023-02-22T15:53:45.320Z,100779.81
2023-02-22T15:56:17.932Z,100780.59
2023-02-22T15:58:49.538Z,100780.97
2023-02-22T16:01:21.433Z,100780.66
2023-02-22T16:03:56.151Z,100782.97
2023-02-22T16:06:33.451Z,100774.50
2023-02-22T16:09:04.779Z,100776.41
2023-02-22T16:11:38.484Z,100774.94
2023-02-22T16:14:10.250Z,100777.97
2023-02-22T16:16:43.287Z,100782.38
2023-02-22T16:19:35.481Z,100774.53
2023-02-22T16:22:13.507Z,100780.69
2023-02-22T16:24:43.415Z,100773.84
2023-02-22T16:27:21.800Z,100767.75
2023-02-22T16:30:15.536Z,100768.78
2023-02-22T16:32:52.252Z,100761.03
2023-02-22T16:35:28.565Z,100765.81
2023-02-22T16:38:01.281Z,100763.03
2023-02-22T16:40:34.824Z,100758.78
2023-02-22T16:43:06.652Z,100762.59
2023-02-22T16:45:36.119Z,100763.19
2023-02-22T16:48:14.878Z,100755.63
2023-02-22T16:50:46.869Z,100754.66
2023-02-22T16:53:19.950Z,100749.38
2023-02-22T16:55:49.938Z,100743.41
2023-02-22T16:58:20.974Z,100745.84
2023-02-22T17:00:50.636Z,100743.63
2023-02-22T17:03:21.046Z,100741.56
2023-02-22T17:05:53.419Z,100745.03
2023-02-22T17:08:22.970Z,100742.91
2023-02-22T17:10:56.734Z,100747.09
2023-02-22T17:13:27.577Z,100738.00
2023-02-22T17:15:57.243Z,100727.28
2023-02-22T17:18:33.884Z,100723.63
2023-02-22T17:21:06.207Z,100727.00
2023-02-22T17:23:36.112Z,100721.63
2023-02-22T17:26:07.018Z,100723.38
2023-02-22T17:28:36.434Z,100713.78
2023-02-22T17:31:05.919Z,100704.44
2023-02-22T17:33:38.247Z,100709.06
2023-02-22T17:36:11.134Z,100710.81
2023-02-22T17:38:41.988Z,100705.84
2023-02-22T17:41:12.023Z,100706.19
2023-02-22T17:43:41.441Z,100707.91
2023-02-22T17:46:11.121Z,100700.75
2023-02-22T17:48:40.968Z,100706.72
2023-02-22T17:51:15.044Z,100708.16
2023-02-22T17:53:44.454Z,100706.41
2023-02-22T17:56:18.546Z,100702.91
2023-02-22T17:58:49.716Z,100716.06
2023-02-22T18:01:24.827Z,100709.78
2023-02-22T18:03:54.260Z,100696.84
2023-02-22T18:06:28.470Z,100699.09
2023-02-22T18:08:59.770Z,100698.22
2023-02-22T18:11:32.674Z,100695.50
2023-02-22T18:14:02.615Z,100687.78
2023-02-22T18:16:36.390Z,100684.09
2023-02-22T18:19:05.972Z,100678.72
2023-02-22T18:21:38.797Z,100669.34
2023-02-22T18:24:09.057Z,100664.94
2023-02-22T18:26:39.048Z,100675.03
2023-02-22T18:29:12.320Z,100659.53
2023-02-22T18:31:41.800Z,100646.69
2023-02-22T18:34:13.442Z,100645.72
2023-02-22T18:36:45.510Z,100637.22
2023-02-22T18:39:14.875Z,100636.91
2023-02-22T18:41:45.890Z,100630.91
2023-02-22T18:44:15.344Z,100621.44
2023-02-22T18:46:46.059Z,100616.22
2023-02-22T18:49:17.277Z,100610.03
2023-02-22T18:51:49.227Z,100604.16
2023-02-22T18:54:19.766Z,100607.47
2023-02-22T18:56:49.192Z,100608.09
2023-02-22T18:59:18.701Z,100609.78
2023-02-22T19:01:49.165Z,100604.09
2023-02-22T19:04:18.741Z,100603.88
2023-02-22T19:06:51.041Z,100608.75
2023-02-22T19:09:20.570Z,100602.03
2023-02-22T19:11:50.916Z,100595.13
2023-02-22T19:14:21.222Z,100596.00
2023-02-22T19:16:52.206Z,100601.13
2023-02-22T19:19:26.473Z,100595.03
2023-02-22T19:21:59.011Z,100595.56
2023-02-22T19:24:28.719Z,100596.47
2023-02-22T19:26:59.968Z,100602.25
2023-02-22T19:29:31.138Z,100601.00
2023-02-22T19:32:00.650Z,100599.06
2023-02-22T19:34:31.306Z,100598.13
2023-02-22T19:37:05.209Z,100597.13
2023-02-22T19:39:38.482Z,100601.34
2023-02-22T19:42:09.772Z,100588.66
2023-02-22T19:44:40.054Z,100591.66
2023-02-22T19:47:10.918Z,100588.81
2023-02-22T19:49:41.093Z,100587.38
2023-02-22T19:52:13.239Z,100592.19
2023-02-22T19:54:42.882Z,100583.53
2023-02-22T19:57:13.309Z,100585.56
2023-02-22T19:59:42.721Z,100580.50
2023-02-22T20:02:13.260Z,100578.72
2023-02-22T20:04:42.746Z,100580.34
2023-02-22T20:07:14.769Z,100580.19
2023-02-22T20:09:44.491Z,100579.16
2023-02-22T20:12:14.385Z,100578.38
2023-02-22T20:14:43.787Z,100574.31
2023-02-22T20:17:13.246Z,100571.03
2023-02-22T20:19:43.120Z,100572.66
2023-02-22T20:22:15.188Z,100576.66
2023-02-22T20:24:44.615Z,100569.47
2023-02-22T20:27:14.008Z,100577.78
2023-02-22T20:29:43.766Z,100577.88
2023-02-22T20:32:15.986Z,100573.66
2023-02-22T20:34:48.301Z,100572.34
2023-02-22T20:37:21.628Z,100577.34
2023-02-22T20:39:53.293Z,100581.34
2023-02-22T20:42:22.963Z,100579.72
2023-02-22T20:44:52.662Z,100577.66
2023-02-22T20:47:22.158Z,100568.91
2023-02-22T20:49:53.064Z,100569.63
2023-02-22T20:52:25.040Z,100569.50
2023-02-22T20:54:56.402Z,100572.44
2023-02-22T20:57:25.772Z,100569.50
2023-02-22T20:59:55.132Z,100574.63
2023-02-22T21:02:24.782Z,100574.31
2023-02-22T21:04:54.214Z,100567.22
2023-02-22T21:07:26.183Z,100572.38
2023-02-22T21:09:55.544Z,100568.03
2023-02-22T21:12:25.354Z,100569.00
2023-02-22T21:14:54.764Z,100573.25
2023-02-22T21:17:28.835Z,100573.78
2023-02-22T21:19:58.672Z,100574.78
2023-02-22T21:22:30.826Z,100575.41
2023-02-22T21:25:01.491Z,100573.47
2023-02-22T21:27:30.970Z,100571.00
2023-02-22T21:30:00.337Z,100571.31
2023-02-22T21:32:30.022Z,100585.50
2023-02-22T21:34:59.454Z,100580.06
2023-02-22T21:37:31.419Z,100578.78
2023-02-22T21:40:00.782Z,100587.09
2023-02-22T21:42:30.265Z,100585.66
2023-02-22T21:44:59.632Z,100586.22
2023-02-22T21:47:31.180Z,100587.13
2023-02-22T21:50:01.728Z,100596.16
2023-02-22T21:52:33.754Z,100595.31
2023-02-22T21:55:03.494Z,100595.03
2023-02-22T21:57:33.047Z,100604.44
2023-02-22T22:00:12.826Z,100604.91
2023-02-22T22:02:42.220Z,100609.38
2023-02-22T22:05:16.990Z,100607.81
2023-02-22T22:07:48.990Z,100617.75
2023-02-22T22:10:26.879Z,100611.28
2023-02-22T22:12:58.132Z,100612.09
2023-02-22T22:15:30.201Z,100609.75
2023-02-22T22:18:06.125Z,100605.69
2023-02-22T22:20:37.970Z,100614.91
2023-02-22T22:23:10.488Z,100606.00
2023-02-22T22:25:40.965Z,100608.47
2023-02-22T22:28:11.371Z,100609.03
2023-02-22T22:30:41.156Z,100614.22
2023-02-22T22:33:11.431Z,100613.69
2023-02-22T22:35:41.920Z,100607.75
2023-02-22T22:38:15.501Z,100608.38
2023-02-22T22:40:50.919Z,100603.44
2023-02-22T22:43:20.367Z,100609.44
2023-02-22T22:45:49.766Z,100611.66
2023-02-22T22:48:20.225Z,100608.84
2023-02-22T22:51:02.490Z,100601.00
2023-02-22T22:53:36.471Z,100611.88
2023-02-22T22:56:07.853Z,100617.09
2023-02-22T22:58:38.072Z,100606.75
2023-02-22T23:01:17.672Z,100603.13
2023-02-22T23:03:55.299Z,100607.38
2023-02-22T23:06:27.684Z,100605.63
2023-02-22T23:09:10.237Z,100614.09
2023-02-22T23:11:44.412Z,100611.53
2023-02-22T23:14:15.409Z,100605.53
2023-02-22T23:16:45.493Z,100605.47
2023-02-22T23:19:15.682Z,100615.53
2023-02-22T23:21:46.214Z,100618.91
2023-02-22T23:24:21.042Z,100621.47
2023-02-22T23:26:51.081Z,100622.41
2023-02-22T23:29:21.806Z,100618.66
2023-02-22T23:31:54.524Z,100621.13
2023-02-22T23:34:25.789Z,100624.72
2023-02-22T23:36:55.623Z,100626.59
2023-02-22T23:39:28.196Z,100630.03
2023-02-22T23:41:59.295Z,100616.56
2023-02-22T23:44:29.889Z,100622.94
2023-02-22T23:46:59.302Z,100615.59
2023-02-22T23:49:35.749Z,100619.03
2023-02-22T23:52:05.332Z,100623.66
2023-02-22T23:54:43.882Z,100617.09
2023-02-22T23:57:17.541Z,100622.75
2023-02-22T23:59:46.934Z,100619.56
